sensor_id;sensor_type;location;lat;lon;timestamp;P1;durP1;ratioP1;P2;durP2;ratioP2
57846;SDS011;43675;50.030;21.952;2023-08-31T00:00:01;44.80;;;40.20;;
57846;SDS011;43675;50.030;21.952;2023-08-31T00:02:28;45.10;;;40.80;;
57846;SDS011;43675;50.030;21.952;2023-08-31T00:04:55;44.30;;;39.90;;
57846;SDS011;43675;50.030;21.952;2023-08-31T00:07:21;44.20;;;39.70;;
57846;SDS011;43675;50.030;21.952;2023-08-31T00:09:48;43.50;;;39.00;;
57846;SDS011;43675;50.030;21.952;2023-08-31T00:12:15;46.00;;;41.40;;
57846;SDS011;43675;50.030;21.952;2023-08-31T00:14:41;45.30;;;40.60;;
57846;SDS011;43675;50.030;21.952;2023-08-31T00:17:08;43.90;;;39.50;;
57846;SDS011;43675;50.030;21.952;2023-08-31T00:19:34;44.30;;;40.00;;
57846;SDS011;43675;50.030;21.952;2023-08-31T00:22:01;43.80;;;39.60;;
57846;SDS011;43675;50.030;21.952;2023-08-31T00:24:28;43.50;;;39.10;;
57846;SDS011;43675;50.030;21.952;2023-08-31T00:26:54;41.60;;;37.50;;
57846;SDS011;43675;50.030;21.952;2023-08-31T00:29:21;42.70;;;38.40;;
57846;SDS011;43675;50.030;21.952;2023-08-31T00:31:47;41.40;;;37.50;;
57846;SDS011;43675;50.030;21.952;2023-08-31T00:34:14;42.20;;;38.10;;
57846;SDS011;43675;50.030;21.952;2023-08-31T00:36:40;41.10;;;37.30;;
57846;SDS011;43675;50.030;21.952;2023-08-31T00:39:07;40.90;;;37.10;;
57846;SDS011;43675;50.030;21.952;2023-08-31T00:41:33;39.30;;;35.60;;
57846;SDS011;43675;50.030;21.952;2023-08-31T00:44:02;38.90;;;35.40;;
57846;SDS011;43675;50.030;21.952;2023-08-31T00:46:30;38.00;;;34.50;;
57846;SDS011;43675;50.030;21.952;2023-08-31T00:48:57;38.00;;;34.40;;
57846;SDS011;43675;50.030;21.952;2023-08-31T00:51:24;36.30;;;33.00;;
57846;SDS011;43675;50.030;21.952;2023-08-31T00:53:51;38.30;;;34.70;;
57846;SDS011;43675;50.030;21.952;2023-08-31T00:56:19;36.40;;;33.00;;
57846;SDS011;43675;50.030;21.952;2023-08-31T00:58:45;36.70;;;33.40;;
57846;SDS011;43675;50.030;21.952;2023-08-31T01:09:27;38.60;;;35.00;;
57846;SDS011;43675;50.030;21.952;2023-08-31T01:12:22;37.30;;;34.00;;
57846;SDS011;43675;50.030;21.952;2023-08-31T01:14:56;40.10;;;36.20;;
57846;SDS011;43675;50.030;21.952;2023-08-31T01:17:29;37.30;;;33.90;;
57846;SDS011;43675;50.030;21.952;2023-08-31T01:19:58;37.60;;;34.30;;
57846;SDS011;43675;50.030;21.952;2023-08-31T01:22:30;38.60;;;35.10;;
57846;SDS011;43675;50.030;21.952;2023-08-31T01:25:04;39.50;;;36.10;;
57846;SDS011;43675;50.030;21.952;2023-08-31T01:27:31;39.80;;;36.30;;
57846;SDS011;43675;50.030;21.952;2023-08-31T01:29:58;37.60;;;34.40;;
57846;SDS011;43675;50.030;21.952;2023-08-31T01:32:25;37.10;;;33.90;;
57846;SDS011;43675;50.030;21.952;2023-08-31T01:34:52;37.50;;;34.30;;
57846;SDS011;43675;50.030;21.952;2023-08-31T01:37:25;36.80;;;33.70;;
57846;SDS011;43675;50.030;21.952;2023-08-31T01:39:58;38.00;;;34.60;;
57846;SDS011;43675;50.030;21.952;2023-08-31T01:42:32;36.90;;;33.80;;
57846;SDS011;43675;50.030;21.952;2023-08-31T01:44:59;39.10;;;35.80;;
57846;SDS011;43675;50.030;21.952;2023-08-31T01:47:27;40.90;;;37.10;;
57846;SDS011;43675;50.030;21.952;2023-08-31T01:49:54;39.80;;;36.30;;
57846;SDS011;43675;50.030;21.952;2023-08-31T01:52:21;40.20;;;36.70;;
57846;SDS011;43675;50.030;21.952;2023-08-31T01:54:47;39.00;;;35.50;;
57846;SDS011;43675;50.030;21.952;2023-08-31T01:57:14;39.50;;;36.10;;
57846;SDS011;43675;50.030;21.952;2023-08-31T01:59:41;39.10;;;35.60;;
57846;SDS011;43675;50.030;21.952;2023-08-31T02:02:07;40.00;;;36.30;;
57846;SDS011;43675;50.030;21.952;2023-08-31T02:04:34;39.90;;;36.20;;
57846;SDS011;43675;50.030;21.952;2023-08-31T02:07:00;38.90;;;35.40;;
57846;SDS011;43675;50.030;21.952;2023-08-31T02:09:27;39.10;;;35.70;;
57846;SDS011;43675;50.030;21.952;2023-08-31T02:11:53;42.10;;;38.20;;
57846;SDS011;43675;50.030;21.952;2023-08-31T02:14:20;42.20;;;38.20;;
57846;SDS011;43675;50.030;21.952;2023-08-31T02:16:46;41.20;;;37.70;;
57846;SDS011;43675;50.030;21.952;2023-08-31T02:19:13;41.80;;;37.70;;
57846;SDS011;43675;50.030;21.952;2023-08-31T02:21:39;38.90;;;35.30;;
57846;SDS011;43675;50.030;21.952;2023-08-31T02:24:06;39.10;;;35.70;;
57846;SDS011;43675;50.030;21.952;2023-08-31T02:26:35;39.10;;;35.60;;
57846;SDS011;43675;50.030;21.952;2023-08-31T02:29:01;38.50;;;35.20;;
57846;SDS011;43675;50.030;21.952;2023-08-31T02:31:28;37.70;;;34.30;;
57846;SDS011;43675;50.030;21.952;2023-08-31T02:33:55;35.90;;;32.80;;
57846;SDS011;43675;50.030;21.952;2023-08-31T02:36:22;34.50;;;31.50;;
57846;SDS011;43675;50.030;21.952;2023-08-31T02:38:48;34.20;;;31.20;;
57846;SDS011;43675;50.030;21.952;2023-08-31T02:41:15;33.00;;;30.30;;
57846;SDS011;43675;50.030;21.952;2023-08-31T02:43:41;32.00;;;29.30;;
57846;SDS011;43675;50.030;21.952;2023-08-31T02:46:08;31.80;;;29.00;;
57846;SDS011;43675;50.030;21.952;2023-08-31T02:48:35;32.30;;;29.60;;
57846;SDS011;43675;50.030;21.952;2023-08-31T02:51:01;32.20;;;29.50;;
57846;SDS011;43675;50.030;21.952;2023-08-31T02:53:31;33.20;;;30.40;;
57846;SDS011;43675;50.030;21.952;2023-08-31T02:55:58;33.00;;;30.30;;
57846;SDS011;43675;50.030;21.952;2023-08-31T02:58:25;34.70;;;31.40;;
57846;SDS011;43675;50.030;21.952;2023-08-31T03:00:51;34.70;;;31.70;;
57846;SDS011;43675;50.030;21.952;2023-08-31T03:03:18;35.50;;;32.40;;
57846;SDS011;43675;50.030;21.952;2023-08-31T03:05:45;35.30;;;32.40;;
57846;SDS011;43675;50.030;21.952;2023-08-31T03:08:12;35.40;;;32.30;;
57846;SDS011;43675;50.030;21.952;2023-08-31T03:10:39;35.40;;;32.20;;
57846;SDS011;43675;50.030;21.952;2023-08-31T03:13:06;35.80;;;32.40;;
57846;SDS011;43675;50.030;21.952;2023-08-31T03:15:33;36.30;;;33.00;;
57846;SDS011;43675;50.030;21.952;2023-08-31T03:18:00;37.30;;;33.90;;
57846;SDS011;43675;50.030;21.952;2023-08-31T03:20:27;37.50;;;34.00;;
57846;SDS011;43675;50.030;21.952;2023-08-31T03:22:53;37.30;;;34.00;;
57846;SDS011;43675;50.030;21.952;2023-08-31T03:25:20;36.30;;;33.00;;
57846;SDS011;43675;50.030;21.952;2023-08-31T03:27:46;34.60;;;31.40;;
57846;SDS011;43675;50.030;21.952;2023-08-31T03:30:13;35.60;;;32.30;;
57846;SDS011;43675;50.030;21.952;2023-08-31T03:32:39;36.10;;;32.70;;
57846;SDS011;43675;50.030;21.952;2023-08-31T03:35:06;36.70;;;33.30;;
57846;SDS011;43675;50.030;21.952;2023-08-31T03:37:33;36.20;;;32.70;;
57846;SDS011;43675;50.030;21.952;2023-08-31T03:40:00;36.70;;;33.40;;
57846;SDS011;43675;50.030;21.952;2023-08-31T03:42:26;37.70;;;34.30;;
57846;SDS011;43675;50.030;21.952;2023-08-31T03:44:53;37.10;;;33.60;;
57846;SDS011;43675;50.030;21.952;2023-08-31T03:47:20;38.10;;;34.60;;
57846;SDS011;43675;50.030;21.952;2023-08-31T03:49:46;38.10;;;34.40;;
57846;SDS011;43675;50.030;21.952;2023-08-31T03:52:13;37.70;;;34.30;;
57846;SDS011;43675;50.030;21.952;2023-08-31T03:54:40;38.50;;;35.10;;
57846;SDS011;43675;50.030;21.952;2023-08-31T03:57:06;37.10;;;33.70;;
57846;SDS011;43675;50.030;21.952;2023-08-31T03:59:33;37.40;;;33.80;;
57846;SDS011;43675;50.030;21.952;2023-08-31T04:01:59;39.30;;;35.50;;
57846;SDS011;43675;50.030;21.952;2023-08-31T04:04:26;37.50;;;33.90;;
57846;SDS011;43675;50.030;21.952;2023-08-31T04:06:52;36.80;;;33.20;;
57846;SDS011;43675;50.030;21.952;2023-08-31T04:09:19;37.30;;;33.60;;
57846;SDS011;43675;50.030;21.952;2023-08-31T04:11:46;35.80;;;32.50;;
57846;SDS011;43675;50.030;21.952;2023-08-31T04:14:12;35.40;;;32.00;;
57846;SDS011;43675;50.030;21.952;2023-08-31T04:16:39;34.70;;;31.10;;
57846;SDS011;43675;50.030;21.952;2023-08-31T04:19:05;34.40;;;30.70;;
57846;SDS011;43675;50.030;21.952;2023-08-31T04:21:32;34.30;;;30.70;;
57846;SDS011;43675;50.030;21.952;2023-08-31T04:23:59;36.00;;;32.40;;
57846;SDS011;43675;50.030;21.952;2023-08-31T04:26:25;36.40;;;32.80;;
57846;SDS011;43675;50.030;21.952;2023-08-31T04:28:52;36.70;;;32.50;;
57846;SDS011;43675;50.030;21.952;2023-08-31T04:31:18;36.50;;;32.60;;
57846;SDS011;43675;50.030;21.952;2023-08-31T04:33:45;36.90;;;33.00;;
57846;SDS011;43675;50.030;21.952;2023-08-31T04:36:11;35.30;;;31.70;;
57846;SDS011;43675;50.030;21.952;2023-08-31T04:38:38;36.60;;;32.80;;
57846;SDS011;43675;50.030;21.952;2023-08-31T04:41:05;36.20;;;32.60;;
57846;SDS011;43675;50.030;21.952;2023-08-31T04:43:31;36.80;;;33.10;;
57846;SDS011;43675;50.030;21.952;2023-08-31T04:45:58;34.90;;;31.50;;
57846;SDS011;43675;50.030;21.952;2023-08-31T04:48:25;33.20;;;30.10;;
57846;SDS011;43675;50.030;21.952;2023-08-31T04:50:56;33.20;;;30.10;;
57846;SDS011;43675;50.030;21.952;2023-08-31T04:53:23;31.40;;;28.50;;
57846;SDS011;43675;50.030;21.952;2023-08-31T04:55:50;32.30;;;29.10;;
57846;SDS011;43675;50.030;21.952;2023-08-31T04:58:16;31.30;;;28.30;;
57846;SDS011;43675;50.030;21.952;2023-08-31T05:00:43;30.00;;;27.10;;
57846;SDS011;43675;50.030;21.952;2023-08-31T05:03:10;31.20;;;28.30;;
57846;SDS011;43675;50.030;21.952;2023-08-31T05:05:36;29.90;;;27.10;;
57846;SDS011;43675;50.030;21.952;2023-08-31T05:08:03;29.20;;;26.60;;
57846;SDS011;43675;50.030;21.952;2023-08-31T05:10:30;28.60;;;25.90;;
57846;SDS011;43675;50.030;21.952;2023-08-31T05:12:57;28.60;;;25.90;;
57846;SDS011;43675;50.030;21.952;2023-08-31T05:15:23;28.40;;;25.90;;
57846;SDS011;43675;50.030;21.952;2023-08-31T05:17:50;28.10;;;25.30;;
57846;SDS011;43675;50.030;21.952;2023-08-31T05:20:17;28.00;;;25.40;;
57846;SDS011;43675;50.030;21.952;2023-08-31T05:22:43;26.80;;;24.60;;
57846;SDS011;43675;50.030;21.952;2023-08-31T05:25:10;26.90;;;24.60;;
57846;SDS011;43675;50.030;21.952;2023-08-31T05:27:36;26.00;;;23.40;;
57846;SDS011;43675;50.030;21.952;2023-08-31T05:30:03;24.60;;;22.50;;
57846;SDS011;43675;50.030;21.952;2023-08-31T05:32:30;24.90;;;22.40;;
57846;SDS011;43675;50.030;21.952;2023-08-31T05:34:56;24.60;;;22.50;;
57846;SDS011;43675;50.030;21.952;2023-08-31T05:37:23;24.60;;;22.50;;
57846;SDS011;43675;50.030;21.952;2023-08-31T05:39:50;25.90;;;23.40;;
57846;SDS011;43675;50.030;21.952;2023-08-31T05:42:17;23.70;;;21.70;;
57846;SDS011;43675;50.030;21.952;2023-08-31T05:44:44;23.60;;;21.50;;
57846;SDS011;43675;50.030;21.952;2023-08-31T05:47:10;23.30;;;21.00;;
57846;SDS011;43675;50.030;21.952;2023-08-31T05:49:37;22.30;;;20.30;;
57846;SDS011;43675;50.030;21.952;2023-08-31T05:52:04;20.80;;;19.00;;
57846;SDS011;43675;50.030;21.952;2023-08-31T05:54:31;21.30;;;19.50;;
57846;SDS011;43675;50.030;21.952;2023-08-31T05:56:58;20.60;;;18.90;;
57846;SDS011;43675;50.030;21.952;2023-08-31T05:59:25;20.40;;;18.70;;
57846;SDS011;43675;50.030;21.952;2023-08-31T06:01:52;20.00;;;18.40;;
57846;SDS011;43675;50.030;21.952;2023-08-31T06:04:18;18.20;;;16.80;;
57846;SDS011;43675;50.030;21.952;2023-08-31T06:06:45;18.40;;;16.80;;
57846;SDS011;43675;50.030;21.952;2023-08-31T06:09:11;17.90;;;16.50;;
57846;SDS011;43675;50.030;21.952;2023-08-31T06:11:38;17.70;;;16.30;;
57846;SDS011;43675;50.030;21.952;2023-08-31T06:14:04;18.80;;;17.10;;
57846;SDS011;43675;50.030;21.952;2023-08-31T06:16:31;18.60;;;16.90;;
57846;SDS011;43675;50.030;21.952;2023-08-31T06:18:58;18.70;;;17.10;;
57846;SDS011;43675;50.030;21.952;2023-08-31T06:21:24;18.10;;;16.60;;
57846;SDS011;43675;50.030;21.952;2023-08-31T06:23:51;19.20;;;17.50;;
57846;SDS011;43675;50.030;21.952;2023-08-31T06:26:17;19.80;;;18.20;;
57846;SDS011;43675;50.030;21.952;2023-08-31T06:28:44;19.30;;;17.70;;
57846;SDS011;43675;50.030;21.952;2023-08-31T06:31:11;18.10;;;16.70;;
57846;SDS011;43675;50.030;21.952;2023-08-31T06:33:37;18.90;;;17.20;;
57846;SDS011;43675;50.030;21.952;2023-08-31T06:36:04;18.90;;;17.40;;
57846;SDS011;43675;50.030;21.952;2023-08-31T06:38:31;19.00;;;17.50;;
57846;SDS011;43675;50.030;21.952;2023-08-31T06:40:57;18.60;;;17.10;;
57846;SDS011;43675;50.030;21.952;2023-08-31T06:43:24;19.30;;;17.60;;
57846;SDS011;43675;50.030;21.952;2023-08-31T06:45:52;18.10;;;16.70;;
57846;SDS011;43675;50.030;21.952;2023-08-31T06:48:19;17.90;;;16.50;;
57846;SDS011;43675;50.030;21.952;2023-08-31T06:50:46;19.10;;;17.40;;
57846;SDS011;43675;50.030;21.952;2023-08-31T06:53:13;19.10;;;17.50;;
57846;SDS011;43675;50.030;21.952;2023-08-31T06:55:40;19.90;;;18.20;;
57846;SDS011;43675;50.030;21.952;2023-08-31T06:58:06;20.30;;;18.40;;
57846;SDS011;43675;50.030;21.952;2023-08-31T07:00:33;19.90;;;18.20;;
57846;SDS011;43675;50.030;21.952;2023-08-31T07:03:00;18.80;;;17.30;;
57846;SDS011;43675;50.030;21.952;2023-08-31T07:05:27;18.80;;;17.30;;
57846;SDS011;43675;50.030;21.952;2023-08-31T07:07:53;18.50;;;17.10;;
57846;SDS011;43675;50.030;21.952;2023-08-31T07:10:20;18.90;;;17.40;;
57846;SDS011;43675;50.030;21.952;2023-08-31T07:12:50;19.20;;;17.60;;
57846;SDS011;43675;50.030;21.952;2023-08-31T07:15:17;19.30;;;17.70;;
57846;SDS011;43675;50.030;21.952;2023-08-31T07:17:43;19.60;;;17.90;;
57846;SDS011;43675;50.030;21.952;2023-08-31T07:20:11;19.50;;;17.90;;
57846;SDS011;43675;50.030;21.952;2023-08-31T07:22:38;19.50;;;17.90;;
57846;SDS011;43675;50.030;21.952;2023-08-31T07:25:05;18.60;;;17.00;;
57846;SDS011;43675;50.030;21.952;2023-08-31T07:27:32;18.70;;;17.00;;
57846;SDS011;43675;50.030;21.952;2023-08-31T07:29:59;18.70;;;17.20;;
57846;SDS011;43675;50.030;21.952;2023-08-31T07:32:26;18.50;;;17.00;;
57846;SDS011;43675;50.030;21.952;2023-08-31T07:34:52;18.90;;;17.30;;
57846;SDS011;43675;50.030;21.952;2023-08-31T07:37:19;18.80;;;17.10;;
57846;SDS011;43675;50.030;21.952;2023-08-31T07:39:45;19.60;;;18.00;;
57846;SDS011;43675;50.030;21.952;2023-08-31T07:42:12;18.80;;;17.10;;
57846;SDS011;43675;50.030;21.952;2023-08-31T07:44:39;18.60;;;16.90;;
57846;SDS011;43675;50.030;21.952;2023-08-31T07:47:05;17.40;;;16.00;;
57846;SDS011;43675;50.030;21.952;2023-08-31T07:49:32;17.40;;;16.00;;
57846;SDS011;43675;50.030;21.952;2023-08-31T07:51:59;18.30;;;16.80;;
57846;SDS011;43675;50.030;21.952;2023-08-31T07:54:25;19.40;;;17.70;;
57846;SDS011;43675;50.030;21.952;2023-08-31T07:56:52;18.60;;;17.10;;
57846;SDS011;43675;50.030;21.952;2023-08-31T07:59:18;18.40;;;16.90;;
57846;SDS011;43675;50.030;21.952;2023-08-31T08:01:45;19.00;;;17.50;;
57846;SDS011;43675;50.030;21.952;2023-08-31T08:04:12;19.80;;;18.10;;
57846;SDS011;43675;50.030;21.952;2023-08-31T08:06:39;20.00;;;18.30;;
57846;SDS011;43675;50.030;21.952;2023-08-31T08:09:06;19.50;;;17.80;;
57846;SDS011;43675;50.030;21.952;2023-08-31T08:11:34;18.60;;;17.10;;
57846;SDS011;43675;50.030;21.952;2023-08-31T08:14:00;19.60;;;18.00;;
57846;SDS011;43675;50.030;21.952;2023-08-31T08:16:27;18.80;;;17.30;;
57846;SDS011;43675;50.030;21.952;2023-08-31T08:18:54;20.00;;;18.30;;
57846;SDS011;43675;50.030;21.952;2023-08-31T08:21:20;19.60;;;17.90;;
57846;SDS011;43675;50.030;21.952;2023-08-31T08:23:47;20.00;;;18.30;;
57846;SDS011;43675;50.030;21.952;2023-08-31T08:26:14;20.10;;;18.30;;
57846;SDS011;43675;50.030;21.952;2023-08-31T08:28:40;20.10;;;18.30;;
57846;SDS011;43675;50.030;21.952;2023-08-31T08:31:07;20.10;;;18.40;;
57846;SDS011;43675;50.030;21.952;2023-08-31T08:33:33;19.90;;;18.30;;
57846;SDS011;43675;50.030;21.952;2023-08-31T08:36:00;20.20;;;18.40;;
57846;SDS011;43675;50.030;21.952;2023-08-31T08:38:26;19.30;;;17.70;;
57846;SDS011;43675;50.030;21.952;2023-08-31T08:40:53;18.70;;;17.20;;
57846;SDS011;43675;50.030;21.952;2023-08-31T08:43:25;19.60;;;17.80;;
57846;SDS011;43675;50.030;21.952;2023-08-31T08:45:53;18.70;;;17.20;;
57846;SDS011;43675;50.030;21.952;2023-08-31T08:48:20;18.30;;;16.80;;
57846;SDS011;43675;50.030;21.952;2023-08-31T08:50:47;30.00;;;24.60;;
57846;SDS011;43675;50.030;21.952;2023-08-31T08:53:14;25.10;;;22.30;;
57846;SDS011;43675;50.030;21.952;2023-08-31T08:55:41;22.60;;;20.20;;
57846;SDS011;43675;50.030;21.952;2023-08-31T08:58:07;18.30;;;16.80;;
57846;SDS011;43675;50.030;21.952;2023-08-31T09:00:34;17.50;;;16.10;;
57846;SDS011;43675;50.030;21.952;2023-08-31T09:03:01;17.50;;;16.10;;
57846;SDS011;43675;50.030;21.952;2023-08-31T09:05:30;17.40;;;16.00;;
57846;SDS011;43675;50.030;21.952;2023-08-31T09:08:01;16.90;;;15.60;;
57846;SDS011;43675;50.030;21.952;2023-08-31T09:10:34;16.70;;;15.20;;
57846;SDS011;43675;50.030;21.952;2023-08-31T09:13:04;16.50;;;15.20;;
57846;SDS011;43675;50.030;21.952;2023-08-31T09:15:44;16.80;;;15.50;;
57846;SDS011;43675;50.030;21.952;2023-08-31T09:20:46;16.40;;;15.20;;
57846;SDS011;43675;50.030;21.952;2023-08-31T09:23:13;17.00;;;15.60;;
57846;SDS011;43675;50.030;21.952;2023-08-31T09:25:41;16.60;;;15.30;;
57846;SDS011;43675;50.030;21.952;2023-08-31T09:28:12;16.40;;;15.20;;
57846;SDS011;43675;50.030;21.952;2023-08-31T09:30:39;16.80;;;15.50;;
57846;SDS011;43675;50.030;21.952;2023-08-31T09:33:07;16.60;;;15.40;;
57846;SDS011;43675;50.030;21.952;2023-08-31T09:35:56;17.20;;;15.70;;
57846;SDS011;43675;50.030;21.952;2023-08-31T09:38:26;16.90;;;15.70;;
57846;SDS011;43675;50.030;21.952;2023-08-31T09:40:58;16.80;;;15.50;;
57846;SDS011;43675;50.030;21.952;2023-08-31T09:43:30;16.80;;;15.50;;
57846;SDS011;43675;50.030;21.952;2023-08-31T09:45:56;16.90;;;15.60;;
57846;SDS011;43675;50.030;21.952;2023-08-31T09:48:26;16.90;;;15.60;;
57846;SDS011;43675;50.030;21.952;2023-08-31T09:50:53;19.20;;;17.40;;
57846;SDS011;43675;50.030;21.952;2023-08-31T09:53:21;26.90;;;23.10;;
57846;SDS011;43675;50.030;21.952;2023-08-31T09:55:51;18.30;;;16.70;;
57846;SDS011;43675;50.030;21.952;2023-08-31T09:58:18;18.90;;;17.30;;
57846;SDS011;43675;50.030;21.952;2023-08-31T10:00:46;17.80;;;16.50;;
57846;SDS011;43675;50.030;21.952;2023-08-31T10:03:16;17.70;;;16.20;;
57846;SDS011;43675;50.030;21.952;2023-08-31T10:05:43;17.50;;;16.20;;
57846;SDS011;43675;50.030;21.952;2023-08-31T10:08:11;17.70;;;16.30;;
57846;SDS011;43675;50.030;21.952;2023-08-31T10:10:39;17.10;;;15.90;;
57846;SDS011;43675;50.030;21.952;2023-08-31T10:13:06;16.70;;;15.30;;
57846;SDS011;43675;50.030;21.952;2023-08-31T10:15:34;16.30;;;15.20;;
57846;SDS011;43675;50.030;21.952;2023-08-31T10:18:02;16.50;;;15.20;;
57846;SDS011;43675;50.030;21.952;2023-08-31T10:20:30;16.80;;;15.40;;
57846;SDS011;43675;50.030;21.952;2023-08-31T10:22:58;17.10;;;15.80;;
57846;SDS011;43675;50.030;21.952;2023-08-31T10:25:25;17.40;;;16.00;;
57846;SDS011;43675;50.030;21.952;2023-08-31T10:31:07;16.70;;;15.50;;
57846;SDS011;43675;50.030;21.952;2023-08-31T10:33:34;17.10;;;15.70;;
57846;SDS011;43675;50.030;21.952;2023-08-31T10:38:44;16.90;;;15.60;;
57846;SDS011;43675;50.030;21.952;2023-08-31T10:43:55;17.50;;;16.10;;
57846;SDS011;43675;50.030;21.952;2023-08-31T10:48:57;17.50;;;16.00;;
57846;SDS011;43675;50.030;21.952;2023-08-31T10:51:27;17.20;;;15.80;;
57846;SDS011;43675;50.030;21.952;2023-08-31T10:59:26;16.60;;;15.20;;
57846;SDS011;43675;50.030;21.952;2023-08-31T11:02:07;17.00;;;15.60;;
57846;SDS011;43675;50.030;21.952;2023-08-31T11:04:58;17.00;;;15.60;;
57846;SDS011;43675;50.030;21.952;2023-08-31T11:07:27;17.40;;;16.00;;
57846;SDS011;43675;50.030;21.952;2023-08-31T11:10:05;18.90;;;17.10;;
57846;SDS011;43675;50.030;21.952;2023-08-31T11:12:44;33.00;;;24.30;;
57846;SDS011;43675;50.030;21.952;2023-08-31T11:15:12;70.40;;;39.00;;
57846;SDS011;43675;50.030;21.952;2023-08-31T11:17:40;82.10;;;45.40;;
57846;SDS011;43675;50.030;21.952;2023-08-31T11:20:09;63.50;;;40.00;;
57846;SDS011;43675;50.030;21.952;2023-08-31T11:22:40;26.50;;;22.00;;
57846;SDS011;43675;50.030;21.952;2023-08-31T11:25:08;20.10;;;18.10;;
57846;SDS011;43675;50.030;21.952;2023-08-31T11:27:37;17.70;;;16.20;;
57846;SDS011;43675;50.030;21.952;2023-08-31T11:30:10;17.40;;;16.00;;
57846;SDS011;43675;50.030;21.952;2023-08-31T11:32:43;17.20;;;15.80;;
57846;SDS011;43675;50.030;21.952;2023-08-31T11:35:21;16.00;;;14.80;;
57846;SDS011;43675;50.030;21.952;2023-08-31T11:37:52;16.40;;;15.20;;
57846;SDS011;43675;50.030;21.952;2023-08-31T11:40:22;16.20;;;14.90;;
57846;SDS011;43675;50.030;21.952;2023-08-31T11:42:49;16.20;;;14.90;;
57846;SDS011;43675;50.030;21.952;2023-08-31T11:45:15;16.20;;;15.00;;
57846;SDS011;43675;50.030;21.952;2023-08-31T11:47:42;16.40;;;15.00;;
57846;SDS011;43675;50.030;21.952;2023-08-31T11:50:10;16.80;;;15.50;;
57846;SDS011;43675;50.030;21.952;2023-08-31T11:52:39;16.80;;;15.50;;
57846;SDS011;43675;50.030;21.952;2023-08-31T11:55:15;17.00;;;15.70;;
57846;SDS011;43675;50.030;21.952;2023-08-31T11:57:52;17.60;;;16.20;;
57846;SDS011;43675;50.030;21.952;2023-08-31T12:00:20;17.40;;;16.10;;
57846;SDS011;43675;50.030;21.952;2023-08-31T12:02:56;17.80;;;16.30;;
57846;SDS011;43675;50.030;21.952;2023-08-31T12:05:27;18.70;;;17.10;;
57846;SDS011;43675;50.030;21.952;2023-08-31T12:07:54;22.10;;;20.00;;
57846;SDS011;43675;50.030;21.952;2023-08-31T12:10:23;19.80;;;18.20;;
57846;SDS011;43675;50.030;21.952;2023-08-31T12:12:51;20.70;;;19.10;;
57846;SDS011;43675;50.030;21.952;2023-08-31T12:15:17;19.10;;;17.70;;
57846;SDS011;43675;50.030;21.952;2023-08-31T12:17:47;18.40;;;17.00;;
57846;SDS011;43675;50.030;21.952;2023-08-31T12:20:14;18.80;;;17.40;;
57846;SDS011;43675;50.030;21.952;2023-08-31T12:22:41;20.60;;;18.80;;
57846;SDS011;43675;50.030;21.952;2023-08-31T12:25:07;17.70;;;16.40;;
57846;SDS011;43675;50.030;21.952;2023-08-31T12:27:34;18.10;;;16.90;;
57846;SDS011;43675;50.030;21.952;2023-08-31T12:30:01;17.90;;;16.50;;
57846;SDS011;43675;50.030;21.952;2023-08-31T12:32:27;24.60;;;22.30;;
57846;SDS011;43675;50.030;21.952;2023-08-31T12:34:54;21.90;;;20.10;;
57846;SDS011;43675;50.030;21.952;2023-08-31T12:37:20;19.80;;;18.30;;
57846;SDS011;43675;50.030;21.952;2023-08-31T12:39:47;20.10;;;18.60;;
57846;SDS011;43675;50.030;21.952;2023-08-31T12:42:14;20.10;;;18.40;;
57846;SDS011;43675;50.030;21.952;2023-08-31T12:44:40;19.90;;;18.40;;
57846;SDS011;43675;50.030;21.952;2023-08-31T12:47:07;20.00;;;18.50;;
57846;SDS011;43675;50.030;21.952;2023-08-31T12:49:33;19.60;;;18.20;;
57846;SDS011;43675;50.030;21.952;2023-08-31T12:52:00;19.90;;;18.30;;
57846;SDS011;43675;50.030;21.952;2023-08-31T12:54:27;20.40;;;18.90;;
57846;SDS011;43675;50.030;21.952;2023-08-31T12:56:53;21.70;;;20.10;;
57846;SDS011;43675;50.030;21.952;2023-08-31T12:59:20;23.40;;;21.50;;
57846;SDS011;43675;50.030;21.952;2023-08-31T13:01:46;23.60;;;21.50;;
57846;SDS011;43675;50.030;21.952;2023-08-31T13:04:13;21.90;;;20.20;;
57846;SDS011;43675;50.030;21.952;2023-08-31T13:06:39;23.40;;;21.50;;
57846;SDS011;43675;50.030;21.952;2023-08-31T13:09:06;21.00;;;19.30;;
57846;SDS011;43675;50.030;21.952;2023-08-31T13:11:32;20.60;;;18.80;;
57846;SDS011;43675;50.030;21.952;2023-08-31T13:13:59;21.70;;;20.00;;
57846;SDS011;43675;50.030;21.952;2023-08-31T13:16:26;21.90;;;20.20;;
57846;SDS011;43675;50.030;21.952;2023-08-31T13:18:52;21.80;;;19.90;;
57846;SDS011;43675;50.030;21.952;2023-08-31T13:21:19;23.00;;;21.00;;
57846;SDS011;43675;50.030;21.952;2023-08-31T13:23:46;23.70;;;21.50;;
57846;SDS011;43675;50.030;21.952;2023-08-31T13:26:12;22.50;;;20.60;;
57846;SDS011;43675;50.030;21.952;2023-08-31T13:28:39;21.50;;;19.90;;
57846;SDS011;43675;50.030;21.952;2023-08-31T13:31:05;23.60;;;21.60;;
57846;SDS011;43675;50.030;21.952;2023-08-31T13:33:32;24.40;;;22.40;;
57846;SDS011;43675;50.030;21.952;2023-08-31T13:35:59;26.80;;;24.30;;
57846;SDS011;43675;50.030;21.952;2023-08-31T13:38:25;25.60;;;23.30;;
57846;SDS011;43675;50.030;21.952;2023-08-31T13:40:56;25.00;;;22.70;;
57846;SDS011;43675;50.030;21.952;2023-08-31T13:43:23;22.90;;;20.90;;
57846;SDS011;43675;50.030;21.952;2023-08-31T13:45:50;21.20;;;19.40;;
57846;SDS011;43675;50.030;21.952;2023-08-31T13:48:17;23.60;;;21.60;;
57846;SDS011;43675;50.030;21.952;2023-08-31T13:50:45;23.10;;;21.00;;
57846;SDS011;43675;50.030;21.952;2023-08-31T13:53:13;21.90;;;20.00;;
57846;SDS011;43675;50.030;21.952;2023-08-31T13:55:40;20.50;;;18.80;;
57846;SDS011;43675;50.030;21.952;2023-08-31T13:58:07;20.40;;;18.70;;
57846;SDS011;43675;50.030;21.952;2023-08-31T14:00:35;19.70;;;18.20;;
57846;SDS011;43675;50.030;21.952;2023-08-31T14:03:03;19.30;;;17.80;;
57846;SDS011;43675;50.030;21.952;2023-08-31T14:05:30;20.30;;;18.70;;
57846;SDS011;43675;50.030;21.952;2023-08-31T14:07:58;20.20;;;18.50;;
57846;SDS011;43675;50.030;21.952;2023-08-31T14:10:25;19.70;;;18.20;;
57846;SDS011;43675;50.030;21.952;2023-08-31T14:12:51;20.50;;;18.80;;
57846;SDS011;43675;50.030;21.952;2023-08-31T14:15:18;20.20;;;18.60;;
57846;SDS011;43675;50.030;21.952;2023-08-31T14:17:45;20.30;;;18.70;;
57846;SDS011;43675;50.030;21.952;2023-08-31T14:20:12;20.10;;;18.40;;
57846;SDS011;43675;50.030;21.952;2023-08-31T14:22:38;19.50;;;17.90;;
57846;SDS011;43675;50.030;21.952;2023-08-31T14:25:05;19.00;;;17.40;;
57846;SDS011;43675;50.030;21.952;2023-08-31T14:27:32;18.50;;;17.00;;
57846;SDS011;43675;50.030;21.952;2023-08-31T14:30:00;18.10;;;16.70;;
57846;SDS011;43675;50.030;21.952;2023-08-31T14:32:26;18.40;;;16.80;;
57846;SDS011;43675;50.030;21.952;2023-08-31T14:34:56;17.40;;;16.10;;
57846;SDS011;43675;50.030;21.952;2023-08-31T14:37:22;16.40;;;15.20;;